Onweer radar Meer informatie blitzortung!


Regen radar Meer informatie rain snow radar


Andere websites:

Template documentation
and downloads

And another site

Weather-Template Info-Forum

Webcam-Havenmond

Webcam-Havenkantoor

Webcam-Werkhaven

Webcam-Westhaven



Het weer levert geen direct gevaar op.    Er zijn geen waarschuwingen afgegeven.

METAR rapporten vliegvelden

   
EBAW - Antwerp
Gewijzigd: 19-01-2019 21:50
Helder  
Helder  
   Wind: OZO 9.3 km/h
Wind: OZO 9.3 km/h
Temperatuur: -3°C
Voelt als: -7°C
Dauwpunt: -5°C
Vochtigheid: 86%
Barometer: 1013 hPa
Zicht: meer dan 10 km
Bewolking: Helder
EBAW 192050Z 11005KT CAVOK M03/M05 Q1013 NOSIG
EBLG - Li├Ęge
Gewijzigd: 19-01-2019 21:50
Helder  
Helder  
   Wind: ZO 11.1 km/h
Wind: ZO 11.1 km/h
Temperatuur: -1°C
Voelt als: -5°C
Dauwpunt: -6°C
Vochtigheid: 69%
Barometer: 1012 hPa
Zicht: meer dan 10 km
Bewolking: Helder
EBLG 192050Z 13006KT CAVOK M01/M06 Q1012 NOSIG
EBCV - Mons/Bergen
Gewijzigd: 19-01-2019 21:55
Helder  
Helder  
   Wind: Oosten 7.4 km/h
Wind: Oosten 7.4 km/h
Temperatuur: -1°C
Voelt als: -4°C
Dauwpunt: -4°C
Vochtigheid: 80%
Barometer: 1012 hPa
Bewolking: Helder
Zicht: meer dan 10 km
Bewolking: Helder
EBCV 192055Z AUTO 09004KT 9999 NCD M01/M04 Q1012 BLU
EHBK - Maastricht
Gewijzigd: 19-01-2019 21:55
Gedeeltelijk bewolkt  
Gedeeltelijk bewolkt  
   Wind: Oosten 11.1 km/h
Wind: Oosten 11.1 km/h
Temperatuur: -1°C
Voelt als: -5°C
Dauwpunt: -5°C
Vochtigheid: 75%
Barometer: 1012 hPa
Bewolking: Gedeeltelijk bewolkt
Zicht: meer dan 10 km
Bewolking: Gedeeltelijk bewolkt
EHBK 192055Z AUTO 10006KT 9999 NSC M01/M05 Q1012 NOSIG
ELLX - Luxemburg
Gewijzigd: 19-01-2019 21:50
Helder  
Helder  
   Wind: Oosten 11.1 km/h
Wind: Oosten 11.1 km/h
Temperatuur: -4°C
Voelt als: -8°C
Dauwpunt: -7°C
Vochtigheid: 80%
Barometer: 1011 hPa
Zicht: meer dan 10 km
Bewolking: Helder
ELLX 192050Z 10006KT CAVOK M04/M07 Q1011 NOSIG
EBOS - Oostende
Gewijzigd: 19-01-2019 21:50
Helder  
Helder  
   Wind: Oosten 13 km/h
Wind: Oosten 13 km/h
Temperatuur: -2°C
Voelt als: -7°C
Dauwpunt: -4°C
Vochtigheid: 86%
Barometer: 1012 hPa
Zicht: meer dan 10 km
Bewolking: Helder
EBOS 192050Z 10007KT CAVOK M02/M04 Q1012 NOSIG

Script ontwikkeld door  Saratoga-weather.org Aangepast voor de template door  Weerstation Leuven

U vindt ons ook hier:

Het Weer Aktueel

European Weather Network

WeatherCloud

Weather Underground

Benelux Weer Netwerk

AWEKAS

Apparatuur in gebruik:

Weerstation
Davis VP2

Weerprogramma
Meteohub

Weercomputer
My Computer

Webleverancier
My provider

Davis VP2

Meteohub

My Computer

My provider